sensor_id;sensor_type;location;lat;lon;timestamp;temperature;humidity
30572;DHT22;17348;50.948;10.696;2023-04-04T00:00:09;2.50;99.90
30572;DHT22;17348;50.948;10.696;2023-04-04T00:03:12;2.50;99.90
30572;DHT22;17348;50.948;10.696;2023-04-04T00:06:16;2.50;99.90
30572;DHT22;17348;50.948;10.696;2023-04-04T00:09:19;2.50;99.90
30572;DHT22;17348;50.948;10.696;2023-04-04T00:12:21;2.50;99.90
30572;DHT22;17348;50.948;10.696;2023-04-04T00:15:24;2.40;99.90
30572;DHT22;17348;50.948;10.696;2023-04-04T00:18:27;2.40;99.90
30572;DHT22;17348;50.948;10.696;2023-04-04T00:21:30;2.40;99.90
30572;DHT22;17348;50.948;10.696;2023-04-04T00:24:33;2.40;99.90
30572;DHT22;17348;50.948;10.696;2023-04-04T00:27:35;2.40;99.90
30572;DHT22;17348;50.948;10.696;2023-04-04T00:30:38;2.40;99.90
30572;DHT22;17348;50.948;10.696;2023-04-04T00:33:40;2.50;99.90
30572;DHT22;17348;50.948;10.696;2023-04-04T00:36:44;2.50;99.90
30572;DHT22;17348;50.948;10.696;2023-04-04T00:39:46;2.40;99.90
30572;DHT22;17348;50.948;10.696;2023-04-04T00:42:49;2.40;99.90
30572;DHT22;17348;50.948;10.696;2023-04-04T00:45:52;2.40;99.90
30572;DHT22;17348;50.948;10.696;2023-04-04T00:48:54;2.40;99.90
30572;DHT22;17348;50.948;10.696;2023-04-04T00:51:58;2.50;99.90
30572;DHT22;17348;50.948;10.696;2023-04-04T00:55:01;2.40;99.90
30572;DHT22;17348;50.948;10.696;2023-04-04T00:58:03;2.40;99.90
30572;DHT22;17348;50.948;10.696;2023-04-04T01:01:06;2.40;99.90
30572;DHT22;17348;50.948;10.696;2023-04-04T01:04:10;2.40;99.90
30572;DHT22;17348;50.948;10.696;2023-04-04T01:07:15;2.40;99.90
30572;DHT22;17348;50.948;10.696;2023-04-04T01:10:17;2.50;99.90
30572;DHT22;17348;50.948;10.696;2023-04-04T01:13:20;2.50;99.90
30572;DHT22;17348;50.948;10.696;2023-04-04T01:16:23;2.50;99.90
30572;DHT22;17348;50.948;10.696;2023-04-04T01:19:31;2.40;99.90
30572;DHT22;17348;50.948;10.696;2023-04-04T01:22:37;2.40;99.90
30572;DHT22;17348;50.948;10.696;2023-04-04T01:25:41;2.50;99.90
30572;DHT22;17348;50.948;10.696;2023-04-04T01:28:44;2.50;99.90
30572;DHT22;17348;50.948;10.696;2023-04-04T01:31:53;2.50;99.90
30572;DHT22;17348;50.948;10.696;2023-04-04T01:35:04;2.50;99.90
30572;DHT22;17348;50.948;10.696;2023-04-04T01:38:16;2.50;99.90
30572;DHT22;17348;50.948;10.696;2023-04-04T01:41:21;2.50;99.90
30572;DHT22;17348;50.948;10.696;2023-04-04T01:44:25;2.40;99.90
30572;DHT22;17348;50.948;10.696;2023-04-04T01:47:27;2.40;99.90
30572;DHT22;17348;50.948;10.696;2023-04-04T01:50:31;2.50;99.90
30572;DHT22;17348;50.948;10.696;2023-04-04T01:53:33;2.50;99.90
30572;DHT22;17348;50.948;10.696;2023-04-04T01:56:37;2.40;99.90
30572;DHT22;17348;50.948;10.696;2023-04-04T01:59:39;2.40;99.90
30572;DHT22;17348;50.948;10.696;2023-04-04T02:02:42;2.40;99.90
30572;DHT22;17348;50.948;10.696;2023-04-04T02:05:44;2.30;99.90
30572;DHT22;17348;50.948;10.696;2023-04-04T02:08:47;2.30;99.90
30572;DHT22;17348;50.948;10.696;2023-04-04T02:11:50;2.30;99.90
30572;DHT22;17348;50.948;10.696;2023-04-04T02:14:53;2.30;99.90
30572;DHT22;17348;50.948;10.696;2023-04-04T02:17:55;2.30;99.90
30572;DHT22;17348;50.948;10.696;2023-04-04T02:20:57;2.30;99.90
30572;DHT22;17348;50.948;10.696;2023-04-04T02:24:00;2.30;99.90
30572;DHT22;17348;50.948;10.696;2023-04-04T02:27:04;2.30;99.90
30572;DHT22;17348;50.948;10.696;2023-04-04T02:30:07;2.30;99.90
30572;DHT22;17348;50.948;10.696;2023-04-04T02:33:10;2.30;99.90
30572;DHT22;17348;50.948;10.696;2023-04-04T02:36:12;2.30;99.90
30572;DHT22;17348;50.948;10.696;2023-04-04T02:39:15;2.30;99.90
30572;DHT22;17348;50.948;10.696;2023-04-04T02:42:19;2.30;99.90
30572;DHT22;17348;50.948;10.696;2023-04-04T02:45:21;2.20;99.90
30572;DHT22;17348;50.948;10.696;2023-04-04T02:48:23;2.20;99.90
30572;DHT22;17348;50.948;10.696;2023-04-04T02:51:27;2.20;99.90
30572;DHT22;17348;50.948;10.696;2023-04-04T02:54:29;2.10;99.90
30572;DHT22;17348;50.948;10.696;2023-04-04T02:57:33;2.10;99.90
30572;DHT22;17348;50.948;10.696;2023-04-04T03:00:35;2.00;99.90
30572;DHT22;17348;50.948;10.696;2023-04-04T03:03:37;2.00;99.90
30572;DHT22;17348;50.948;10.696;2023-04-04T03:06:40;1.90;99.90
30572;DHT22;17348;50.948;10.696;2023-04-04T03:09:43;1.80;99.90
30572;DHT22;17348;50.948;10.696;2023-04-04T03:12:47;1.80;99.90
30572;DHT22;17348;50.948;10.696;2023-04-04T03:15:51;1.80;99.90
30572;DHT22;17348;50.948;10.696;2023-04-04T03:18:58;1.70;99.90
30572;DHT22;17348;50.948;10.696;2023-04-04T03:22:01;1.60;99.90
30572;DHT22;17348;50.948;10.696;2023-04-04T03:25:03;1.60;99.90
30572;DHT22;17348;50.948;10.696;2023-04-04T03:28:11;1.50;99.90
30572;DHT22;17348;50.948;10.696;2023-04-04T03:31:13;1.50;99.90
30572;DHT22;17348;50.948;10.696;2023-04-04T03:34:16;1.50;99.90
30572;DHT22;17348;50.948;10.696;2023-04-04T03:37:19;1.50;99.90
30572;DHT22;17348;50.948;10.696;2023-04-04T03:40:21;1.50;99.90
30572;DHT22;17348;50.948;10.696;2023-04-04T03:43:25;1.50;99.90
30572;DHT22;17348;50.948;10.696;2023-04-04T03:46:28;1.40;99.90
30572;DHT22;17348;50.948;10.696;2023-04-04T03:49:30;1.40;99.90
30572;DHT22;17348;50.948;10.696;2023-04-04T03:52:36;1.40;99.90
30572;DHT22;17348;50.948;10.696;2023-04-04T03:55:39;1.40;99.90
30572;DHT22;17348;50.948;10.696;2023-04-04T03:58:43;1.40;99.90
30572;DHT22;17348;50.948;10.696;2023-04-04T04:01:46;1.40;99.90
30572;DHT22;17348;50.948;10.696;2023-04-04T04:04:48;1.40;99.90
30572;DHT22;17348;50.948;10.696;2023-04-04T04:07:50;1.40;99.90
30572;DHT22;17348;50.948;10.696;2023-04-04T04:10:53;1.40;99.90
30572;DHT22;17348;50.948;10.696;2023-04-04T04:13:57;1.40;99.90
30572;DHT22;17348;50.948;10.696;2023-04-04T04:17:00;1.40;99.90
30572;DHT22;17348;50.948;10.696;2023-04-04T04:20:03;1.40;99.90
30572;DHT22;17348;50.948;10.696;2023-04-04T04:23:05;1.40;99.90
30572;DHT22;17348;50.948;10.696;2023-04-04T04:26:08;1.40;99.90
30572;DHT22;17348;50.948;10.696;2023-04-04T04:29:11;1.40;99.90
30572;DHT22;17348;50.948;10.696;2023-04-04T04:32:15;1.40;99.90
30572;DHT22;17348;50.948;10.696;2023-04-04T04:35:17;1.40;99.90
30572;DHT22;17348;50.948;10.696;2023-04-04T04:38:19;1.40;99.90
30572;DHT22;17348;50.948;10.696;2023-04-04T04:41:22;1.40;99.90
30572;DHT22;17348;50.948;10.696;2023-04-04T04:44:25;1.40;99.90
30572;DHT22;17348;50.948;10.696;2023-04-04T04:47:29;1.40;99.90
30572;DHT22;17348;50.948;10.696;2023-04-04T04:50:31;1.50;99.90
30572;DHT22;17348;50.948;10.696;2023-04-04T04:53:34;1.40;99.90
30572;DHT22;17348;50.948;10.696;2023-04-04T04:56:37;1.50;99.90
30572;DHT22;17348;50.948;10.696;2023-04-04T04:59:40;1.40;99.90
30572;DHT22;17348;50.948;10.696;2023-04-04T05:02:43;1.40;99.90
30572;DHT22;17348;50.948;10.696;2023-04-04T05:05:45;1.40;99.90
30572;DHT22;17348;50.948;10.696;2023-04-04T05:08:47;1.40;99.90
30572;DHT22;17348;50.948;10.696;2023-04-04T05:11:49;1.40;99.90
30572;DHT22;17348;50.948;10.696;2023-04-04T05:14:53;1.40;99.90
30572;DHT22;17348;50.948;10.696;2023-04-04T05:17:55;1.40;99.90
30572;DHT22;17348;50.948;10.696;2023-04-04T05:20:58;1.40;99.90
30572;DHT22;17348;50.948;10.696;2023-04-04T05:24:00;1.50;99.90
30572;DHT22;17348;50.948;10.696;2023-04-04T05:27:21;1.50;99.90
30572;DHT22;17348;50.948;10.696;2023-04-04T05:30:25;1.50;99.90
30572;DHT22;17348;50.948;10.696;2023-04-04T05:33:28;1.60;99.90
30572;DHT22;17348;50.948;10.696;2023-04-04T05:36:30;1.80;99.90
30572;DHT22;17348;50.948;10.696;2023-04-04T05:39:33;1.80;99.90
30572;DHT22;17348;50.948;10.696;2023-04-04T05:42:36;1.90;99.90
30572;DHT22;17348;50.948;10.696;2023-04-04T05:45:40;1.90;99.90
30572;DHT22;17348;50.948;10.696;2023-04-04T05:48:42;2.00;99.90
30572;DHT22;17348;50.948;10.696;2023-04-04T05:51:45;2.00;99.90
30572;DHT22;17348;50.948;10.696;2023-04-04T05:54:47;2.10;99.90
30572;DHT22;17348;50.948;10.696;2023-04-04T05:57:52;2.30;99.90
30572;DHT22;17348;50.948;10.696;2023-04-04T06:00:56;2.50;99.90
30572;DHT22;17348;50.948;10.696;2023-04-04T06:03:58;2.50;99.90
30572;DHT22;17348;50.948;10.696;2023-04-04T06:07:01;2.60;99.90
30572;DHT22;17348;50.948;10.696;2023-04-04T06:10:04;2.80;99.90
30572;DHT22;17348;50.948;10.696;2023-04-04T06:13:07;3.00;99.90
30572;DHT22;17348;50.948;10.696;2023-04-04T06:16:11;3.30;99.90
30572;DHT22;17348;50.948;10.696;2023-04-04T06:19:13;3.50;99.90
30572;DHT22;17348;50.948;10.696;2023-04-04T06:22:16;3.70;99.90
30572;DHT22;17348;50.948;10.696;2023-04-04T06:25:18;3.70;99.90
30572;DHT22;17348;50.948;10.696;2023-04-04T06:28:21;4.10;99.90
30572;DHT22;17348;50.948;10.696;2023-04-04T06:31:25;4.60;99.90
30572;DHT22;17348;50.948;10.696;2023-04-04T06:34:27;4.40;99.90
30572;DHT22;17348;50.948;10.696;2023-04-04T06:37:30;4.10;99.90
30572;DHT22;17348;50.948;10.696;2023-04-04T06:40:32;3.70;99.90
30572;DHT22;17348;50.948;10.696;2023-04-04T06:43:35;3.40;99.90
30572;DHT22;17348;50.948;10.696;2023-04-04T06:46:38;3.10;99.90
30572;DHT22;17348;50.948;10.696;2023-04-04T06:49:41;3.00;99.90
30572;DHT22;17348;50.948;10.696;2023-04-04T06:52:44;3.00;99.90
30572;DHT22;17348;50.948;10.696;2023-04-04T06:55:46;3.00;99.90
30572;DHT22;17348;50.948;10.696;2023-04-04T06:58:49;3.00;99.90
30572;DHT22;17348;50.948;10.696;2023-04-04T07:01:52;3.00;99.90
30572;DHT22;17348;50.948;10.696;2023-04-04T07:04:55;3.00;99.90
30572;DHT22;17348;50.948;10.696;2023-04-04T07:07:57;3.10;99.90
30572;DHT22;17348;50.948;10.696;2023-04-04T07:10:59;3.20;99.90
30572;DHT22;17348;50.948;10.696;2023-04-04T07:14:02;3.30;99.90
30572;DHT22;17348;50.948;10.696;2023-04-04T07:17:06;3.30;99.90
30572;DHT22;17348;50.948;10.696;2023-04-04T07:20:09;3.40;99.90
30572;DHT22;17348;50.948;10.696;2023-04-04T07:23:11;3.40;99.90
30572;DHT22;17348;50.948;10.696;2023-04-04T07:26:13;3.40;99.90
30572;DHT22;17348;50.948;10.696;2023-04-04T07:29:16;3.40;99.90
30572;DHT22;17348;50.948;10.696;2023-04-04T07:32:20;3.50;99.90
30572;DHT22;17348;50.948;10.696;2023-04-04T07:35:23;3.60;99.90
30572;DHT22;17348;50.948;10.696;2023-04-04T07:38:25;3.70;99.90
30572;DHT22;17348;50.948;10.696;2023-04-04T07:41:28;3.90;99.90
30572;DHT22;17348;50.948;10.696;2023-04-04T07:44:31;3.90;99.90
30572;DHT22;17348;50.948;10.696;2023-04-04T07:47:35;4.00;99.90
30572;DHT22;17348;50.948;10.696;2023-04-04T07:50:37;4.10;99.90
30572;DHT22;17348;50.948;10.696;2023-04-04T07:53:39;4.20;99.90
30572;DHT22;17348;50.948;10.696;2023-04-04T07:56:42;4.30;99.90
30572;DHT22;17348;50.948;10.696;2023-04-04T07:59:44;4.50;99.90
30572;DHT22;17348;50.948;10.696;2023-04-04T08:02:52;4.50;99.90
30572;DHT22;17348;50.948;10.696;2023-04-04T08:05:54;4.50;99.90
30572;DHT22;17348;50.948;10.696;2023-04-04T08:08:57;4.50;99.90
30572;DHT22;17348;50.948;10.696;2023-04-04T08:11:59;4.50;99.90
30572;DHT22;17348;50.948;10.696;2023-04-04T08:15:02;4.60;99.90
30572;DHT22;17348;50.948;10.696;2023-04-04T08:18:06;4.60;99.90
30572;DHT22;17348;50.948;10.696;2023-04-04T08:21:08;4.60;99.90
30572;DHT22;17348;50.948;10.696;2023-04-04T08:24:11;4.70;99.90
30572;DHT22;17348;50.948;10.696;2023-04-04T08:27:13;4.70;99.90
30572;DHT22;17348;50.948;10.696;2023-04-04T08:30:16;4.70;99.90
30572;DHT22;17348;50.948;10.696;2023-04-04T08:33:20;4.80;99.90
30572;DHT22;17348;50.948;10.696;2023-04-04T08:36:22;4.90;99.90
30572;DHT22;17348;50.948;10.696;2023-04-04T08:39:24;4.90;99.90
30572;DHT22;17348;50.948;10.696;2023-04-04T08:42:27;5.10;99.90
30572;DHT22;17348;50.948;10.696;2023-04-04T08:45:32;5.10;99.90
30572;DHT22;17348;50.948;10.696;2023-04-04T08:48:38;5.10;99.90
30572;DHT22;17348;50.948;10.696;2023-04-04T08:51:42;5.10;99.90
30572;DHT22;17348;50.948;10.696;2023-04-04T08:54:46;5.10;99.90
30572;DHT22;17348;50.948;10.696;2023-04-04T08:57:49;5.20;99.90
30572;DHT22;17348;50.948;10.696;2023-04-04T09:00:52;5.10;99.90
30572;DHT22;17348;50.948;10.696;2023-04-04T09:03:56;5.00;99.90
30572;DHT22;17348;50.948;10.696;2023-04-04T09:06:59;4.90;99.90
30572;DHT22;17348;50.948;10.696;2023-04-04T09:10:07;4.80;99.90
30572;DHT22;17348;50.948;10.696;2023-04-04T09:13:11;4.80;99.90
30572;DHT22;17348;50.948;10.696;2023-04-04T09:16:13;4.70;99.90
30572;DHT22;17348;50.948;10.696;2023-04-04T09:19:18;4.70;99.90
30572;DHT22;17348;50.948;10.696;2023-04-04T09:22:20;4.70;99.90
30572;DHT22;17348;50.948;10.696;2023-04-04T09:25:23;4.80;99.90
30572;DHT22;17348;50.948;10.696;2023-04-04T09:28:27;4.80;99.90
30572;DHT22;17348;50.948;10.696;2023-04-04T09:31:29;4.90;99.90
30572;DHT22;17348;50.948;10.696;2023-04-04T09:34:33;4.80;99.90
30572;DHT22;17348;50.948;10.696;2023-04-04T09:37:36;4.90;99.90
30572;DHT22;17348;50.948;10.696;2023-04-04T09:40:40;4.90;99.90
30572;DHT22;17348;50.948;10.696;2023-04-04T09:43:44;4.90;99.90
30572;DHT22;17348;50.948;10.696;2023-04-04T09:46:47;4.80;99.90
30572;DHT22;17348;50.948;10.696;2023-04-04T09:49:56;4.80;99.90
30572;DHT22;17348;50.948;10.696;2023-04-04T09:52:59;4.80;99.90
30572;DHT22;17348;50.948;10.696;2023-04-04T09:56:02;4.80;99.90
30572;DHT22;17348;50.948;10.696;2023-04-04T09:59:05;4.70;99.90
30572;DHT22;17348;50.948;10.696;2023-04-04T10:02:12;4.80;99.90
30572;DHT22;17348;50.948;10.696;2023-04-04T10:05:17;4.80;99.90
30572;DHT22;17348;50.948;10.696;2023-04-04T10:08:21;4.90;99.90
30572;DHT22;17348;50.948;10.696;2023-04-04T10:11:28;4.90;99.90
30572;DHT22;17348;50.948;10.696;2023-04-04T10:14:33;5.00;99.90
30572;DHT22;17348;50.948;10.696;2023-04-04T10:17:37;4.90;99.90
30572;DHT22;17348;50.948;10.696;2023-04-04T10:20:43;5.10;99.90
30572;DHT22;17348;50.948;10.696;2023-04-04T10:23:47;5.00;99.90
30572;DHT22;17348;50.948;10.696;2023-04-04T10:26:50;5.10;99.90
30572;DHT22;17348;50.948;10.696;2023-04-04T10:29:54;5.00;99.90
30572;DHT22;17348;50.948;10.696;2023-04-04T10:33:04;5.00;99.90
30572;DHT22;17348;50.948;10.696;2023-04-04T10:36:11;4.90;99.90
30572;DHT22;17348;50.948;10.696;2023-04-04T10:39:20;5.00;99.90
30572;DHT22;17348;50.948;10.696;2023-04-04T10:42:25;5.10;99.90
30572;DHT22;17348;50.948;10.696;2023-04-04T10:45:35;5.30;99.90
30572;DHT22;17348;50.948;10.696;2023-04-04T10:48:39;5.60;99.90
30572;DHT22;17348;50.948;10.696;2023-04-04T10:51:43;5.80;99.90
30572;DHT22;17348;50.948;10.696;2023-04-04T10:54:49;5.90;99.90
30572;DHT22;17348;50.948;10.696;2023-04-04T10:57:52;6.10;99.90
30572;DHT22;17348;50.948;10.696;2023-04-04T11:00:55;6.30;99.90
30572;DHT22;17348;50.948;10.696;2023-04-04T11:04:17;6.40;99.90
30572;DHT22;17348;50.948;10.696;2023-04-04T11:07:27;6.30;99.90
30572;DHT22;17348;50.948;10.696;2023-04-04T11:10:31;6.40;99.90
30572;DHT22;17348;50.948;10.696;2023-04-04T11:13:35;6.50;99.90
30572;DHT22;17348;50.948;10.696;2023-04-04T11:16:44;6.60;99.90
30572;DHT22;17348;50.948;10.696;2023-04-04T11:19:57;6.70;99.90
30572;DHT22;17348;50.948;10.696;2023-04-04T11:23:06;6.90;99.90
30572;DHT22;17348;50.948;10.696;2023-04-04T11:26:09;6.90;99.90
30572;DHT22;17348;50.948;10.696;2023-04-04T11:29:20;6.90;99.90
30572;DHT22;17348;50.948;10.696;2023-04-04T11:32:32;6.90;99.90
30572;DHT22;17348;50.948;10.696;2023-04-04T11:35:37;6.90;99.90
30572;DHT22;17348;50.948;10.696;2023-04-04T11:38:48;7.10;99.90
30572;DHT22;17348;50.948;10.696;2023-04-04T11:41:52;7.50;99.90
30572;DHT22;17348;50.948;10.696;2023-04-04T11:45:02;7.70;99.50
30572;DHT22;17348;50.948;10.696;2023-04-04T11:48:05;7.40;99.60
30572;DHT22;17348;50.948;10.696;2023-04-04T11:51:10;7.00;99.80
30572;DHT22;17348;50.948;10.696;2023-04-04T11:54:15;6.90;99.90
30572;DHT22;17348;50.948;10.696;2023-04-04T11:57:19;7.00;99.90
30572;DHT22;17348;50.948;10.696;2023-04-04T12:00:29;7.00;99.90
30572;DHT22;17348;50.948;10.696;2023-04-04T12:03:31;7.30;99.80
30572;DHT22;17348;50.948;10.696;2023-04-04T12:06:37;7.50;98.70
30572;DHT22;17348;50.948;10.696;2023-04-04T12:09:41;7.20;99.20
30572;DHT22;17348;50.948;10.696;2023-04-04T12:12:44;7.10;99.60
30572;DHT22;17348;50.948;10.696;2023-04-04T12:15:47;6.70;99.90
30572;DHT22;17348;50.948;10.696;2023-04-04T12:18:51;6.50;99.90
30572;DHT22;17348;50.948;10.696;2023-04-04T12:21:55;6.30;99.50
30572;DHT22;17348;50.948;10.696;2023-04-04T12:24:59;6.10;99.90
30572;DHT22;17348;50.948;10.696;2023-04-04T12:28:03;6.30;99.90
30572;DHT22;17348;50.948;10.696;2023-04-04T12:31:07;6.40;99.90
30572;DHT22;17348;50.948;10.696;2023-04-04T12:34:15;6.40;99.90
30572;DHT22;17348;50.948;10.696;2023-04-04T12:37:21;6.30;99.70
30572;DHT22;17348;50.948;10.696;2023-04-04T12:40:28;6.20;98.90
30572;DHT22;17348;50.948;10.696;2023-04-04T12:43:31;6.20;99.60
30572;DHT22;17348;50.948;10.696;2023-04-04T12:46:35;6.10;99.60
30572;DHT22;17348;50.948;10.696;2023-04-04T12:49:41;6.20;99.90
30572;DHT22;17348;50.948;10.696;2023-04-04T12:52:44;6.30;99.30
30572;DHT22;17348;50.948;10.696;2023-04-04T12:55:49;6.50;99.20
30572;DHT22;17348;50.948;10.696;2023-04-04T12:58:51;6.70;99.20
30572;DHT22;17348;50.948;10.696;2023-04-04T13:01:54;6.80;99.40
30572;DHT22;17348;50.948;10.696;2023-04-04T13:04:57;7.00;99.60
30572;DHT22;17348;50.948;10.696;2023-04-04T13:08:05;7.00;99.70
30572;DHT22;17348;50.948;10.696;2023-04-04T13:11:09;6.80;98.70
30572;DHT22;17348;50.948;10.696;2023-04-04T13:14:12;6.80;99.60
30572;DHT22;17348;50.948;10.696;2023-04-04T13:17:14;6.90;99.30
30572;DHT22;17348;50.948;10.696;2023-04-04T13:20:18;6.80;98.90
30572;DHT22;17348;50.948;10.696;2023-04-04T13:23:21;6.90;99.50
30572;DHT22;17348;50.948;10.696;2023-04-04T13:26:25;6.70;99.90
30572;DHT22;17348;50.948;10.696;2023-04-04T13:29:27;6.70;99.30
30572;DHT22;17348;50.948;10.696;2023-04-04T13:32:30;6.60;99.30
30572;DHT22;17348;50.948;10.696;2023-04-04T13:35:32;6.40;99.10
30572;DHT22;17348;50.948;10.696;2023-04-04T13:38:35;6.30;99.50
30572;DHT22;17348;50.948;10.696;2023-04-04T13:41:38;6.30;99.50
30572;DHT22;17348;50.948;10.696;2023-04-04T13:44:41;6.50;99.70
30572;DHT22;17348;50.948;10.696;2023-04-04T13:47:43;6.60;98.80
30572;DHT22;17348;50.948;10.696;2023-04-04T13:50:46;6.60;98.70
30572;DHT22;17348;50.948;10.696;2023-04-04T13:53:51;6.70;99.60
30572;DHT22;17348;50.948;10.696;2023-04-04T13:56:55;6.60;99.40
30572;DHT22;17348;50.948;10.696;2023-04-04T13:59:58;6.60;99.50
30572;DHT22;17348;50.948;10.696;2023-04-04T14:03:02;6.60;99.80
30572;DHT22;17348;50.948;10.696;2023-04-04T14:06:04;6.80;99.40
30572;DHT22;17348;50.948;10.696;2023-04-04T14:09:07;7.00;99.10
30572;DHT22;17348;50.948;10.696;2023-04-04T14:12:10;6.90;98.40
30572;DHT22;17348;50.948;10.696;2023-04-04T14:15:13;6.90;98.80
30572;DHT22;17348;50.948;10.696;2023-04-04T14:18:15;6.80;98.50
30572;DHT22;17348;50.948;10.696;2023-04-04T14:21:17;6.80;98.50
30572;DHT22;17348;50.948;10.696;2023-04-04T14:24:20;7.00;98.70
30572;DHT22;17348;50.948;10.696;2023-04-04T14:27:24;7.00;98.50
30572;DHT22;17348;50.948;10.696;2023-04-04T14:30:26;6.90;98.60
30572;DHT22;17348;50.948;10.696;2023-04-04T14:33:29;7.00;99.00
30572;DHT22;17348;50.948;10.696;2023-04-04T14:36:31;6.80;98.50
30572;DHT22;17348;50.948;10.696;2023-04-04T14:39:33;6.70;98.90
30572;DHT22;17348;50.948;10.696;2023-04-04T14:42:37;6.60;98.10
30572;DHT22;17348;50.948;10.696;2023-04-04T14:45:40;6.50;98.20
30572;DHT22;17348;50.948;10.696;2023-04-04T14:48:42;6.50;98.10
30572;DHT22;17348;50.948;10.696;2023-04-04T14:51:44;6.40;99.00
30572;DHT22;17348;50.948;10.696;2023-04-04T14:54:47;6.50;99.30
30572;DHT22;17348;50.948;10.696;2023-04-04T14:57:52;6.50;99.10
30572;DHT22;17348;50.948;10.696;2023-04-04T15:00:54;6.50;99.30
30572;DHT22;17348;50.948;10.696;2023-04-04T15:03:57;6.50;99.60
30572;DHT22;17348;50.948;10.696;2023-04-04T15:06:59;6.50;99.50
30572;DHT22;17348;50.948;10.696;2023-04-04T15:10:03;6.60;99.70
30572;DHT22;17348;50.948;10.696;2023-04-04T15:13:07;6.60;99.70
30572;DHT22;17348;50.948;10.696;2023-04-04T15:16:10;6.50;99.60
30572;DHT22;17348;50.948;10.696;2023-04-04T15:19:12;6.40;99.60
30572;DHT22;17348;50.948;10.696;2023-04-04T15:22:15;6.40;99.60
30572;DHT22;17348;50.948;10.696;2023-04-04T15:25:17;6.40;99.50
30572;DHT22;17348;50.948;10.696;2023-04-04T15:28:21;6.30;99.30
30572;DHT22;17348;50.948;10.696;2023-04-04T15:31:23;6.30;98.90
30572;DHT22;17348;50.948;10.696;2023-04-04T15:34:26;6.30;98.80
30572;DHT22;17348;50.948;10.696;2023-04-04T15:37:28;6.20;99.40
30572;DHT22;17348;50.948;10.696;2023-04-04T15:40:31;6.30;99.10
30572;DHT22;17348;50.948;10.696;2023-04-04T15:43:35;6.30;99.40
30572;DHT22;17348;50.948;10.696;2023-04-04T15:46:37;6.20;99.50
30572;DHT22;17348;50.948;10.696;2023-04-04T15:49:40;6.30;99.60
30572;DHT22;17348;50.948;10.696;2023-04-04T15:52:42;6.20;99.40
30572;DHT22;17348;50.948;10.696;2023-04-04T15:55:44;6.10;99.00
30572;DHT22;17348;50.948;10.696;2023-04-04T15:58:49;6.00;99.20
30572;DHT22;17348;50.948;10.696;2023-04-04T16:01:51;5.90;99.50
30572;DHT22;17348;50.948;10.696;2023-04-04T16:04:54;5.90;98.80
30572;DHT22;17348;50.948;10.696;2023-04-04T16:07:56;5.90;99.40
30572;DHT22;17348;50.948;10.696;2023-04-04T16:10:58;5.90;99.20
30572;DHT22;17348;50.948;10.696;2023-04-04T16:14:03;6.00;99.70
30572;DHT22;17348;50.948;10.696;2023-04-04T16:17:09;6.00;98.30
30572;DHT22;17348;50.948;10.696;2023-04-04T16:20:11;6.00;98.50
30572;DHT22;17348;50.948;10.696;2023-04-04T16:23:14;6.00;98.80
30572;DHT22;17348;50.948;10.696;2023-04-04T16:26:17;6.00;98.90
30572;DHT22;17348;50.948;10.696;2023-04-04T16:29:22;5.90;99.10
30572;DHT22;17348;50.948;10.696;2023-04-04T16:32:24;5.90;99.50
30572;DHT22;17348;50.948;10.696;2023-04-04T16:35:27;5.80;99.80
30572;DHT22;17348;50.948;10.696;2023-04-04T16:38:29;5.90;99.90
30572;DHT22;17348;50.948;10.696;2023-04-04T16:41:31;5.90;99.90
30572;DHT22;17348;50.948;10.696;2023-04-04T16:44:36;6.00;99.90
30572;DHT22;17348;50.948;10.696;2023-04-04T16:47:38;6.10;99.90
30572;DHT22;17348;50.948;10.696;2023-04-04T16:50:41;6.10;99.90
30572;DHT22;17348;50.948;10.696;2023-04-04T16:53:43;6.00;99.90
30572;DHT22;17348;50.948;10.696;2023-04-04T16:56:46;5.90;99.90
30572;DHT22;17348;50.948;10.696;2023-04-04T16:59:49;5.90;99.90
30572;DHT22;17348;50.948;10.696;2023-04-04T17:02:52;5.80;99.90
30572;DHT22;17348;50.948;10.696;2023-04-04T17:05:56;5.80;99.90
30572;DHT22;17348;50.948;10.696;2023-04-04T17:09:00;5.80;99.90
30572;DHT22;17348;50.948;10.696;2023-04-04T17:12:03;5.70;99.90
30572;DHT22;17348;50.948;10.696;2023-04-04T17:15:07;5.60;99.90
30572;DHT22;17348;50.948;10.696;2023-04-04T17:18:10;5.40;99.90
30572;DHT22;17348;50.948;10.696;2023-04-04T17:21:13;5.30;99.90
30572;DHT22;17348;50.948;10.696;2023-04-04T17:24:15;5.20;99.90
30572;DHT22;17348;50.948;10.696;2023-04-04T17:27:19;5.00;99.90
30572;DHT22;17348;50.948;10.696;2023-04-04T17:30:23;4.90;99.90
30572;DHT22;17348;50.948;10.696;2023-04-04T17:33:26;4.90;99.90
30572;DHT22;17348;50.948;10.696;2023-04-04T17:36:30;4.70;99.90
30572;DHT22;17348;50.948;10.696;2023-04-04T17:39:32;4.60;99.90
30572;DHT22;17348;50.948;10.696;2023-04-04T17:42:34;4.50;99.90
30572;DHT22;17348;50.948;10.696;2023-04-04T17:45:41;4.40;99.90
30572;DHT22;17348;50.948;10.696;2023-04-04T17:48:43;4.40;99.90
30572;DHT22;17348;50.948;10.696;2023-04-04T17:51:46;4.20;99.90
30572;DHT22;17348;50.948;10.696;2023-04-04T17:54:48;4.10;99.90
30572;DHT22;17348;50.948;10.696;2023-04-04T17:57:52;4.00;99.90
30572;DHT22;17348;50.948;10.696;2023-04-04T18:00:56;3.80;99.90
30572;DHT22;17348;50.948;10.696;2023-04-04T18:03:59;3.80;99.90
30572;DHT22;17348;50.948;10.696;2023-04-04T18:07:02;3.70;99.90
30572;DHT22;17348;50.948;10.696;2023-04-04T18:10:06;3.60;99.90
30572;DHT22;17348;50.948;10.696;2023-04-04T18:13:09;3.60;99.90
30572;DHT22;17348;50.948;10.696;2023-04-04T18:16:13;3.50;99.90
30572;DHT22;17348;50.948;10.696;2023-04-04T18:19:15;3.40;99.90
30572;DHT22;17348;50.948;10.696;2023-04-04T18:22:17;3.30;99.90
30572;DHT22;17348;50.948;10.696;2023-04-04T18:25:20;3.20;99.90
30572;DHT22;17348;50.948;10.696;2023-04-04T18:28:23;3.20;99.90
30572;DHT22;17348;50.948;10.696;2023-04-04T18:31:26;3.10;99.90
30572;DHT22;17348;50.948;10.696;2023-04-04T18:34:29;3.00;99.90
30572;DHT22;17348;50.948;10.696;2023-04-04T18:37:31;3.00;99.90
30572;DHT22;17348;50.948;10.696;2023-04-04T18:40:33;2.90;99.90
30572;DHT22;17348;50.948;10.696;2023-04-04T18:43:36;2.80;99.90
30572;DHT22;17348;50.948;10.696;2023-04-04T18:46:39;2.70;99.90
30572;DHT22;17348;50.948;10.696;2023-04-04T18:49:42;2.70;99.90
30572;DHT22;17348;50.948;10.696;2023-04-04T18:52:44;2.70;99.90
30572;DHT22;17348;50.948;10.696;2023-04-04T18:55:46;2.60;99.90
30572;DHT22;17348;50.948;10.696;2023-04-04T18:58:49;2.50;99.90
30572;DHT22;17348;50.948;10.696;2023-04-04T19:01:53;2.40;99.90
30572;DHT22;17348;50.948;10.696;2023-04-04T19:04:57;2.40;99.90
30572;DHT22;17348;50.948;10.696;2023-04-04T19:08:01;2.30;99.90
30572;DHT22;17348;50.948;10.696;2023-04-04T19:11:04;2.30;99.90
30572;DHT22;17348;50.948;10.696;2023-04-04T19:14:06;2.20;99.90
30572;DHT22;17348;50.948;10.696;2023-04-04T19:17:10;2.20;99.90